createdAt,value
2018-05-07T00:01:27.638Z,67.00
2018-05-07T00:03:56.621Z,67.00
2018-05-07T00:06:24.732Z,67.30
2018-05-07T00:08:52.862Z,67.50
2018-05-07T00:11:21.319Z,67.40
2018-05-07T00:13:50.513Z,67.40
2018-05-07T00:16:18.820Z,67.40
2018-05-07T00:18:46.383Z,67.40
2018-05-07T00:21:13.958Z,67.30
2018-05-07T00:23:41.477Z,67.10
2018-05-07T00:26:09.081Z,67.00
2018-05-07T00:28:36.659Z,67.20
2018-05-07T00:31:04.196Z,66.90
2018-05-07T00:33:31.773Z,67.10
2018-05-07T00:35:59.441Z,67.10
2018-05-07T00:38:29.082Z,67.20
2018-05-07T00:40:56.643Z,67.60
2018-05-07T00:43:24.204Z,68.30
2018-05-07T00:45:51.734Z,68.80
2018-05-07T00:48:19.269Z,68.90
2018-05-07T00:50:46.801Z,68.50
2018-05-07T00:53:14.569Z,67.90
2018-05-07T00:55:42.163Z,68.40
2018-05-07T00:58:09.712Z,68.40
2018-05-07T01:00:37.285Z,67.30
2018-05-07T01:03:04.879Z,66.80
2018-05-07T01:05:32.848Z,66.30
2018-05-07T01:08:01.258Z,66.30
2018-05-07T01:10:28.810Z,66.50
2018-05-07T01:12:57.040Z,66.60
2018-05-07T01:15:24.624Z,66.80
2018-05-07T01:17:52.189Z,67.30
2018-05-07T01:20:20.149Z,67.20
2018-05-07T01:22:48.363Z,67.20
2018-05-07T01:25:15.911Z,67.20
2018-05-07T01:27:44.150Z,67.90
2018-05-07T01:30:12.101Z,68.40
2018-05-07T01:32:39.648Z,68.40
2018-05-07T01:35:07.256Z,68.50
2018-05-07T01:37:35.219Z,68.90
2018-05-07T01:40:02.758Z,68.90
2018-05-07T01:42:30.339Z,69.60
2018-05-07T01:44:58.387Z,70.20
2018-05-07T01:47:26.105Z,70.20
2018-05-07T01:49:53.706Z,71.20
2018-05-07T01:52:22.145Z,70.10
2018-05-07T01:54:49.760Z,70.10
2018-05-07T01:57:18.954Z,69.60
2018-05-07T01:59:46.484Z,69.50
2018-05-07T02:02:14.062Z,69.80
2018-05-07T02:04:41.620Z,70.30
2018-05-07T02:07:09.177Z,71.00
2018-05-07T02:09:36.807Z,72.60
2018-05-07T02:12:04.359Z,73.20
2018-05-07T02:14:31.894Z,73.90
2018-05-07T02:16:59.507Z,74.50
2018-05-07T02:19:27.079Z,74.70
2018-05-07T02:21:55.082Z,75.50
2018-05-07T02:24:22.999Z,76.00
2018-05-07T02:26:50.516Z,76.00
2018-05-07T02:29:18.081Z,76.20
2018-05-07T02:31:45.716Z,76.20
2018-05-07T02:34:13.669Z,76.00
2018-05-07T02:36:41.236Z,76.00
2018-05-07T02:39:08.778Z,76.00
2018-05-07T02:41:36.318Z,75.90
2018-05-07T02:44:06.266Z,76.10
2018-05-07T02:46:34.561Z,75.90
2018-05-07T02:49:02.106Z,75.90
2018-05-07T02:51:30.147Z,75.70
2018-05-07T02:53:57.660Z,75.70
2018-05-07T02:56:25.277Z,75.50
2018-05-07T02:58:52.840Z,75.40
2018-05-07T03:01:20.377Z,75.30
2018-05-07T03:03:47.925Z,75.10
2018-05-07T03:06:15.497Z,74.80
2018-05-07T03:08:43.188Z,74.70
2018-05-07T03:11:10.786Z,74.60
2018-05-07T03:13:38.398Z,74.60
2018-05-07T03:16:05.951Z,74.80
2018-05-07T03:18:33.535Z,74.70
2018-05-07T03:21:01.181Z,74.80
2018-05-07T03:23:28.731Z,74.90
2018-05-07T03:25:56.310Z,75.10
2018-05-07T03:28:23.886Z,75.10
2018-05-07T03:30:51.441Z,75.10
2018-05-07T03:33:19.039Z,75.10
2018-05-07T03:35:46.579Z,75.10
2018-05-07T03:38:14.504Z,74.00
2018-05-07T03:40:42.080Z,74.00
2018-05-07T03:43:09.973Z,73.20
2018-05-07T03:45:38.653Z,71.80
2018-05-07T03:48:06.651Z,71.80
2018-05-07T03:50:34.197Z,71.80
2018-05-07T03:53:02.308Z,72.00
2018-05-07T03:55:29.959Z,72.60
2018-05-07T03:57:57.975Z,73.10
2018-05-07T04:00:25.515Z,73.20
2018-05-07T04:02:53.089Z,73.50
2018-05-07T04:05:20.644Z,73.40
2018-05-07T04:07:48.269Z,73.30
2018-05-07T04:10:15.818Z,73.20
2018-05-07T04:12:44.841Z,72.40
2018-05-07T04:15:12.373Z,72.50
2018-05-07T04:17:51.927Z,72.20
2018-05-07T04:20:33.268Z,72.00
2018-05-07T04:23:13.029Z,71.10
2018-05-07T04:25:40.670Z,71.10
2018-05-07T04:28:08.984Z,70.80
2018-05-07T04:30:36.816Z,70.60
2018-05-07T04:33:04.753Z,70.60
2018-05-07T04:35:32.299Z,70.60
2018-05-07T04:38:00.387Z,70.60
2018-05-07T04:40:27.941Z,70.40
2018-05-07T04:42:55.488Z,70.40
2018-05-07T04:45:24.269Z,70.60
2018-05-07T04:47:52.589Z,70.60
2018-05-07T04:50:20.124Z,70.50
2018-05-07T04:52:47.719Z,70.30
2018-05-07T04:55:16.473Z,70.80
2018-05-07T04:57:44.009Z,70.80
2018-05-07T05:00:11.596Z,70.80
2018-05-07T05:02:40.010Z,71.10
2018-05-07T05:05:08.010Z,71.50
2018-05-07T05:07:39.723Z,72.60
2018-05-07T05:10:08.234Z,74.20
2018-05-07T05:12:36.480Z,74.10
2018-05-07T05:15:05.452Z,72.60
2018-05-07T05:17:41.918Z,72.30
2018-05-07T05:20:09.568Z,72.20
2018-05-07T05:22:37.131Z,72.10
2018-05-07T05:25:05.612Z,72.10
2018-05-07T05:27:33.602Z,72.50
2018-05-07T05:30:07.980Z,72.50
2018-05-07T05:32:39.253Z,72.90
2018-05-07T05:35:08.806Z,73.30
2018-05-07T05:37:39.308Z,74.20
2018-05-07T05:40:13.922Z,74.20
2018-05-07T05:42:43.290Z,74.50
2018-05-07T05:45:10.888Z,74.60
2018-05-07T05:47:38.501Z,74.90
2018-05-07T05:50:06.634Z,75.00
2018-05-07T05:52:34.087Z,75.10
2018-05-07T05:55:01.664Z,75.50
2018-05-07T05:57:29.868Z,74.80
2018-05-07T05:59:57.968Z,74.80
2018-05-07T06:02:25.554Z,74.90
2018-05-07T06:04:53.110Z,74.50
2018-05-07T06:07:20.663Z,74.30
2018-05-07T06:09:48.208Z,74.20
2018-05-07T06:12:15.804Z,73.80
2018-05-07T06:14:43.942Z,73.20
2018-05-07T06:17:11.683Z,73.20
2018-05-07T06:19:39.946Z,73.40
2018-05-07T06:22:07.472Z,73.30
2018-05-07T06:24:35.557Z,73.60
2018-05-07T06:27:03.504Z,74.10
2018-05-07T06:29:31.075Z,74.10
2018-05-07T06:31:59.061Z,73.50
2018-05-07T06:34:26.679Z,73.50
2018-05-07T06:36:54.230Z,72.40
2018-05-07T06:39:21.766Z,69.90
2018-05-07T06:41:49.352Z,68.10
2018-05-07T06:44:16.890Z,68.70
2018-05-07T06:46:44.524Z,68.70
2018-05-07T06:49:12.071Z,68.40
2018-05-07T06:51:40.068Z,66.80
2018-05-07T06:54:07.625Z,66.80
2018-05-07T06:56:35.170Z,68.60
2018-05-07T06:59:03.101Z,67.10
2018-05-07T07:01:30.677Z,67.10
2018-05-07T07:03:59.538Z,65.00
2018-05-07T07:06:27.083Z,65.00
2018-05-07T07:08:54.811Z,65.00
2018-05-07T07:11:22.905Z,64.50
2018-05-07T07:13:51.340Z,64.10
2018-05-07T07:16:18.889Z,63.00
2018-05-07T07:18:46.422Z,62.60
2018-05-07T07:21:13.960Z,62.80
2018-05-07T07:23:42.228Z,60.40
2018-05-07T07:26:09.800Z,61.30
2018-05-07T07:28:37.313Z,61.00
2018-05-07T07:31:05.277Z,60.50
2018-05-07T07:33:32.982Z,60.50
2018-05-07T07:36:00.812Z,59.10
2018-05-07T07:38:28.389Z,59.10
2018-05-07T07:40:56.395Z,59.50
2018-05-07T07:43:23.916Z,59.50
2018-05-07T07:45:51.501Z,59.30
2018-05-07T07:48:19.892Z,59.00
2018-05-07T07:50:47.437Z,57.40
2018-05-07T07:53:15.021Z,58.60
2018-05-07T07:55:42.557Z,57.70
2018-05-07T07:58:10.255Z,57.30
2018-05-07T08:00:37.856Z,56.40
2018-05-07T08:03:06.509Z,55.80
2018-05-07T08:05:34.041Z,55.90
2018-05-07T08:08:01.595Z,55.30
2018-05-07T08:10:29.145Z,55.00
2018-05-07T08:12:56.713Z,54.10
2018-05-07T08:15:24.279Z,54.00
2018-05-07T08:20:26.871Z,54.20
2018-05-07T08:22:54.427Z,54.20
2018-05-07T08:25:22.287Z,55.10
2018-05-07T08:27:49.882Z,55.00
2018-05-07T08:30:18.438Z,54.00
2018-05-07T08:32:46.777Z,53.50
2018-05-07T08:35:15.351Z,53.20
2018-05-07T08:37:43.339Z,54.40
2018-05-07T08:40:11.287Z,53.80
2018-05-07T08:42:39.194Z,53.80
2018-05-07T08:45:06.719Z,54.10
2018-05-07T08:47:35.041Z,50.80
2018-05-07T08:50:03.139Z,51.00
2018-05-07T08:52:30.712Z,51.00
2018-05-07T08:54:58.980Z,50.50
2018-05-07T08:57:26.600Z,50.20
2018-05-07T08:59:54.124Z,49.80
2018-05-07T09:02:22.079Z,50.50
2018-05-07T09:04:49.648Z,50.50
2018-05-07T09:07:17.163Z,51.10
2018-05-07T09:09:44.712Z,50.50
2018-05-07T09:12:12.360Z,49.80
2018-05-07T09:14:39.927Z,50.00
2018-05-07T09:17:07.529Z,51.00
2018-05-07T09:19:35.097Z,49.10
2018-05-07T09:22:03.052Z,48.10
2018-05-07T09:24:30.617Z,48.10
2018-05-07T09:26:58.180Z,50.20
2018-05-07T09:29:25.725Z,47.40
2018-05-07T09:31:53.309Z,47.10
2018-05-07T09:34:20.869Z,47.50
2018-05-07T09:36:48.416Z,47.50
2018-05-07T09:39:15.959Z,48.40
2018-05-07T09:41:43.513Z,46.80
2018-05-07T09:44:11.055Z,46.20
2018-05-07T09:46:38.617Z,45.60
2018-05-07T09:49:06.334Z,45.20
2018-05-07T09:51:33.804Z,43.30
2018-05-07T09:54:01.783Z,44.60
2018-05-07T09:56:29.351Z,44.60
2018-05-07T09:58:57.699Z,44.10
2018-05-07T10:01:25.264Z,44.30
2018-05-07T10:03:53.207Z,45.40
2018-05-07T10:06:20.773Z,45.40
2018-05-07T10:08:48.806Z,45.80
2018-05-07T10:11:20.298Z,43.40
2018-05-07T10:13:47.842Z,45.90
2018-05-07T10:16:15.426Z,46.20
2018-05-07T10:18:43.356Z,44.50
2018-05-07T10:21:10.942Z,44.50
2018-05-07T10:23:38.621Z,41.70
2018-05-07T10:26:06.484Z,43.90
2018-05-07T10:28:34.539Z,42.80
2018-05-07T10:31:02.877Z,42.70
2018-05-07T10:33:30.452Z,41.30
2018-05-07T10:35:58.006Z,42.30
2018-05-07T10:38:25.573Z,41.90
2018-05-07T10:40:53.165Z,42.30
2018-05-07T10:43:20.696Z,42.20
2018-05-07T10:45:48.248Z,42.70
2018-05-07T10:48:15.852Z,40.70
2018-05-07T10:50:43.458Z,39.80
2018-05-07T10:53:11.027Z,40.50
2018-05-07T10:55:38.697Z,41.30
2018-05-07T10:58:06.251Z,39.40
2018-05-07T11:00:34.378Z,41.10
2018-05-07T11:03:02.312Z,39.70
2018-05-07T11:05:29.872Z,39.60
2018-05-07T11:07:57.436Z,40.80
2018-05-07T11:10:24.988Z,39.20
2018-05-07T11:12:52.535Z,39.40
2018-05-07T11:15:20.096Z,37.90
2018-05-07T11:17:48.592Z,37.80
2018-05-07T11:20:16.196Z,39.80
2018-05-07T11:22:43.876Z,39.10
2018-05-07T11:25:11.421Z,41.00
2018-05-07T11:27:38.967Z,41.00
2018-05-07T11:30:06.908Z,39.30
2018-05-07T11:32:34.451Z,39.30
2018-05-07T11:35:01.994Z,39.90
2018-05-07T11:37:31.620Z,37.00
2018-05-07T11:39:59.652Z,36.30
2018-05-07T11:42:27.280Z,36.30
2018-05-07T11:44:55.320Z,38.90
2018-05-07T11:47:22.885Z,39.00
2018-05-07T11:49:50.403Z,37.90
2018-05-07T11:52:18.191Z,38.20
2018-05-07T11:54:45.952Z,33.20
2018-05-07T11:57:13.827Z,33.30
2018-05-07T11:59:41.705Z,30.70
2018-05-07T12:02:09.428Z,27.70
2018-05-07T12:04:37.309Z,27.90
2018-05-07T12:07:05.251Z,27.10
2018-05-07T12:09:33.300Z,26.10
2018-05-07T12:12:01.446Z,25.40
2018-05-07T12:14:29.223Z,25.30
2018-05-07T12:16:57.108Z,25.30
2018-05-07T12:19:25.109Z,23.40
2018-05-07T12:21:52.815Z,22.40
2018-05-07T12:24:37.338Z,23.40
2018-05-07T12:27:27.490Z,23.40
2018-05-07T12:29:55.144Z,23.30
2018-05-07T12:32:22.737Z,24.30
2018-05-07T12:34:50.814Z,21.20
2018-05-07T12:37:18.445Z,21.10
2018-05-07T12:39:46.013Z,21.70
2018-05-07T12:42:13.969Z,23.90
2018-05-07T12:44:42.210Z,21.80
2018-05-07T12:47:09.774Z,21.80
2018-05-07T12:49:37.316Z,21.20
2018-05-07T12:52:04.904Z,20.90
2018-05-07T12:54:32.462Z,20.40
2018-05-07T12:57:00.042Z,22.20
2018-05-07T12:59:27.579Z,22.80
2018-05-07T13:01:55.145Z,23.30
2018-05-07T13:04:22.729Z,22.80
2018-05-07T13:06:50.290Z,24.50
2018-05-07T13:09:18.272Z,25.80
2018-05-07T13:11:46.211Z,23.80
2018-05-07T13:14:13.775Z,23.80
2018-05-07T13:16:41.354Z,22.80
2018-05-07T13:19:09.413Z,21.60
2018-05-07T13:21:37.062Z,21.60
2018-05-07T13:24:04.679Z,20.70
2018-05-07T13:26:32.265Z,22.20
2018-05-07T13:28:59.915Z,20.80
2018-05-07T13:31:27.490Z,21.00
2018-05-07T13:33:55.067Z,21.80
2018-05-07T13:36:22.668Z,21.70
2018-05-07T13:38:50.234Z,21.20
2018-05-07T13:41:17.836Z,23.70
2018-05-07T13:43:45.414Z,23.20
2018-05-07T13:46:12.959Z,23.40
2018-05-07T13:48:40.517Z,21.70
2018-05-07T13:51:08.371Z,23.50
2018-05-07T13:53:36.283Z,22.40
2018-05-07T13:56:04.059Z,22.00
2018-05-07T13:58:31.684Z,23.00
2018-05-07T14:00:59.244Z,22.60
2018-05-07T14:03:26.820Z,26.30
2018-05-07T14:05:54.369Z,27.30
2018-05-07T14:08:22.337Z,27.80
2018-05-07T14:10:50.222Z,27.50
2018-05-07T14:13:18.061Z,27.90
2018-05-07T14:15:45.646Z,29.00
2018-05-07T14:18:13.345Z,28.40
2018-05-07T14:20:41.671Z,27.70
2018-05-07T14:23:09.396Z,27.70
2018-05-07T14:25:36.970Z,29.10
2018-05-07T14:28:04.558Z,28.90
2018-05-07T14:30:32.134Z,28.50
2018-05-07T14:33:00.149Z,28.90
2018-05-07T14:35:27.752Z,29.00
2018-05-07T14:37:55.320Z,30.30
2018-05-07T14:40:23.280Z,29.50
2018-05-07T14:42:51.201Z,30.00
2018-05-07T14:45:18.821Z,30.00
2018-05-07T14:47:46.789Z,28.20
2018-05-07T14:50:14.413Z,28.30
2018-05-07T14:52:42.334Z,29.80
2018-05-07T14:55:09.897Z,29.80
2018-05-07T14:57:37.448Z,28.80
2018-05-07T15:00:05.003Z,28.70
2018-05-07T15:02:32.952Z,28.70
2018-05-07T15:05:00.527Z,28.80
2018-05-07T15:07:28.481Z,29.30
2018-05-07T15:09:56.041Z,29.30
2018-05-07T15:12:23.589Z,29.00
2018-05-07T15:14:51.147Z,30.10
2018-05-07T15:17:18.721Z,27.60
2018-05-07T15:19:46.317Z,25.10
2018-05-07T15:22:13.900Z,24.90
2018-05-07T15:24:48.561Z,26.20
2018-05-07T15:27:16.056Z,24.80
2018-05-07T15:29:43.619Z,26.20
2018-05-07T15:32:11.768Z,27.60
2018-05-07T15:34:39.334Z,27.50
2018-05-07T15:37:07.269Z,28.60
2018-05-07T15:39:34.857Z,28.60
2018-05-07T15:42:02.771Z,28.60
2018-05-07T15:44:30.345Z,28.60
2018-05-07T15:46:57.891Z,27.20
2018-05-07T15:49:25.476Z,27.20
2018-05-07T15:51:52.972Z,28.90
2018-05-07T15:54:20.734Z,30.60
2018-05-07T15:56:48.796Z,30.70
2018-05-07T15:59:16.482Z,30.70
2018-05-07T16:01:44.045Z,31.20
2018-05-07T16:04:11.687Z,30.10
2018-05-07T16:06:39.656Z,30.70
2018-05-07T16:09:07.609Z,31.30
2018-05-07T16:11:35.219Z,31.30
2018-05-07T16:14:02.803Z,31.10
2018-05-07T16:16:30.388Z,30.20
2018-05-07T16:18:57.954Z,31.20
2018-05-07T16:21:26.005Z,29.80
2018-05-07T16:23:53.488Z,29.80
2018-05-07T16:26:21.489Z,32.20
2018-05-07T16:28:49.060Z,32.20
2018-05-07T16:31:16.678Z,31.60
2018-05-07T16:33:44.255Z,30.60
2018-05-07T16:36:12.212Z,31.10
2018-05-07T16:38:39.792Z,31.10
2018-05-07T16:41:07.363Z,29.80
2018-05-07T16:43:35.894Z,29.10
2018-05-07T16:46:03.496Z,28.00
2018-05-07T16:48:31.061Z,27.10
2018-05-07T16:50:58.659Z,27.40
2018-05-07T16:53:26.246Z,25.50
2018-05-07T16:55:53.817Z,25.10
2018-05-07T16:58:21.831Z,25.20
2018-05-07T17:00:49.398Z,25.20
2018-05-07T17:03:17.322Z,26.50
2018-05-07T17:05:45.306Z,28.90
2018-05-07T17:08:13.514Z,28.50
2018-05-07T17:10:41.661Z,28.50
2018-05-07T17:13:09.225Z,29.40
2018-05-07T17:15:36.778Z,29.50
2018-05-07T17:18:04.363Z,29.40
2018-05-07T17:20:31.949Z,30.50
2018-05-07T17:22:59.562Z,30.30
2018-05-07T17:25:27.112Z,29.70
2018-05-07T17:27:54.676Z,30.40
2018-05-07T17:30:22.260Z,28.90
2018-05-07T17:32:49.903Z,29.90
2018-05-07T17:35:17.472Z,32.00
2018-05-07T17:37:45.045Z,33.10
2018-05-07T17:40:12.638Z,35.20
2018-05-07T17:42:40.246Z,37.00
2018-05-07T17:45:19.655Z,38.90
2018-05-07T17:47:59.388Z,39.60
2018-05-07T17:50:26.921Z,39.60
2018-05-07T17:52:54.477Z,41.10
2018-05-07T17:55:22.029Z,42.50
2018-05-07T17:57:49.614Z,43.00
2018-05-07T18:00:17.757Z,43.10
2018-05-07T18:02:45.388Z,43.20
2018-05-07T18:05:12.986Z,43.60
2018-05-07T18:07:40.720Z,43.60
2018-05-07T18:10:08.243Z,42.00
2018-05-07T18:12:35.856Z,43.80
2018-05-07T18:15:03.449Z,44.20
2018-05-07T18:17:31.147Z,44.20
2018-05-07T18:19:58.572Z,45.50
2018-05-07T18:22:26.138Z,45.90
2018-05-07T18:24:53.699Z,46.80
2018-05-07T18:27:21.305Z,47.50
2018-05-07T18:29:48.896Z,49.00
2018-05-07T18:32:17.182Z,49.80
2018-05-07T18:34:44.756Z,50.50
2018-05-07T18:37:12.364Z,51.10
2018-05-07T18:39:40.358Z,51.30
2018-05-07T18:42:08.100Z,52.30
2018-05-07T18:44:36.075Z,52.80
2018-05-07T18:47:03.665Z,53.20
2018-05-07T18:49:31.259Z,54.00
2018-05-07T18:51:59.317Z,53.70
2018-05-07T18:54:27.256Z,54.90
2018-05-07T18:56:54.824Z,54.90
2018-05-07T18:59:22.484Z,54.70
2018-05-07T19:01:50.048Z,55.00
2018-05-07T19:04:17.784Z,55.00
2018-05-07T19:06:45.342Z,55.30
2018-05-07T19:09:12.923Z,55.10
2018-05-07T19:11:41.084Z,55.00
2018-05-07T19:14:08.661Z,55.40
2018-05-07T19:16:36.262Z,55.90
2018-05-07T19:19:04.246Z,55.60
2018-05-07T19:21:32.005Z,55.60
2018-05-07T19:24:02.217Z,56.30
2018-05-07T19:26:32.718Z,56.70
2018-05-07T19:29:04.046Z,56.80
2018-05-07T19:31:34.741Z,56.60
2018-05-07T19:34:18.152Z,56.90
2018-05-07T19:37:13.726Z,57.00
2018-05-07T19:45:25.665Z,57.40
2018-05-07T19:48:08.532Z,56.90
2018-05-07T19:50:36.315Z,57.30
2018-05-07T19:53:03.980Z,57.40
2018-05-07T19:55:31.576Z,57.70
2018-05-07T19:57:59.125Z,57.30
2018-05-07T20:00:27.973Z,57.50
2018-05-07T20:02:56.675Z,57.80
2018-05-07T20:05:25.549Z,57.80
2018-05-07T20:07:53.403Z,58.40
2018-05-07T20:10:21.396Z,58.60
2018-05-07T20:12:51.003Z,58.60
2018-05-07T20:15:19.192Z,59.10
2018-05-07T20:17:49.095Z,58.80
2018-05-07T20:20:16.681Z,59.50
2018-05-07T20:22:45.819Z,59.60
2018-05-07T20:25:14.307Z,59.60
2018-05-07T20:27:42.305Z,59.80
2018-05-07T20:30:10.127Z,59.80
2018-05-07T20:32:38.297Z,60.10
2018-05-07T20:35:06.366Z,60.30
2018-05-07T20:37:36.209Z,60.40
2018-05-07T20:40:07.012Z,60.70
2018-05-07T20:45:09.788Z,60.50
2018-05-07T20:47:37.451Z,60.50
2018-05-07T20:50:05.037Z,60.60
2018-05-07T20:52:34.415Z,61.10
2018-05-07T20:55:02.783Z,61.10
2018-05-07T20:57:30.392Z,61.10
2018-05-07T20:59:58.363Z,61.20
2018-05-07T21:02:26.498Z,61.10
2018-05-07T21:04:54.063Z,61.10
2018-05-07T21:07:32.012Z,61.10
2018-05-07T21:09:59.634Z,61.30
2018-05-07T21:12:38.163Z,61.60
2018-05-07T21:15:06.905Z,61.80
2018-05-07T21:17:36.347Z,61.90
2018-05-07T21:20:04.101Z,61.40
2018-05-07T21:22:31.641Z,61.80
2018-05-07T21:25:01.380Z,61.80
2018-05-07T21:27:28.936Z,62.00
2018-05-07T21:29:58.089Z,62.20
2018-05-07T21:32:51.758Z,62.40
2018-05-07T21:35:19.582Z,62.80
2018-05-07T21:37:47.654Z,63.00
2018-05-07T21:40:16.099Z,62.80
2018-05-07T21:42:43.860Z,63.10
2018-05-07T21:45:11.593Z,63.10
2018-05-07T21:47:40.116Z,63.70
2018-05-07T21:50:07.954Z,63.80
2018-05-07T21:52:36.071Z,63.90
2018-05-07T21:55:04.406Z,63.70
2018-05-07T21:57:33.241Z,63.80
2018-05-07T22:00:01.000Z,63.80
2018-05-07T22:02:29.917Z,64.10
2018-05-07T22:04:58.048Z,64.00
2018-05-07T22:07:27.507Z,63.90
2018-05-07T22:09:55.257Z,64.30
2018-05-07T22:12:23.960Z,64.30
2018-05-07T22:14:53.173Z,64.30
2018-05-07T22:17:21.509Z,64.40
2018-05-07T22:19:49.672Z,64.40
2018-05-07T22:22:17.823Z,64.40
2018-05-07T22:24:45.385Z,64.50
2018-05-07T22:27:13.132Z,65.20
2018-05-07T22:29:41.314Z,64.90
2018-05-07T22:32:09.179Z,65.20
2018-05-07T22:34:41.549Z,65.60
2018-05-07T22:37:09.205Z,65.70
2018-05-07T22:39:36.724Z,65.00
2018-05-07T22:42:04.879Z,65.30
2018-05-07T22:44:32.406Z,65.30
2018-05-07T22:46:59.952Z,65.20
2018-05-07T22:49:27.480Z,66.40
2018-05-07T22:51:55.111Z,67.40
2018-05-07T22:54:22.698Z,68.10
2018-05-07T22:56:50.917Z,68.70
2018-05-07T22:59:19.277Z,69.70
2018-05-07T23:01:46.810Z,70.10
2018-05-07T23:04:14.738Z,70.40
2018-05-07T23:06:42.575Z,70.40
2018-05-07T23:09:10.311Z,70.70
2018-05-07T23:11:38.815Z,71.10
2018-05-07T23:14:06.342Z,71.10
2018-05-07T23:16:34.468Z,71.10
2018-05-07T23:19:01.992Z,71.10
2018-05-07T23:21:30.504Z,71.00
2018-05-07T23:23:58.227Z,70.80
2018-05-07T23:26:27.057Z,70.60
2018-05-07T23:28:54.668Z,70.60
2018-05-07T23:31:24.312Z,70.40
2018-05-07T23:33:52.150Z,70.30
2018-05-07T23:36:20.732Z,70.10
2018-05-07T23:38:48.998Z,70.20
2018-05-07T23:41:17.850Z,70.20
2018-05-07T23:43:45.994Z,70.10
2018-05-07T23:46:13.703Z,70.10
2018-05-07T23:48:42.150Z,69.80
2018-05-07T23:51:09.662Z,69.80
2018-05-07T23:53:37.627Z,69.40
2018-05-07T23:56:05.404Z,69.40
2018-05-07T23:58:33.563Z,68.80
